Time;durP1;ratioP1;P1;durP2;ratioP2;P2;SDS_P1;SDS_P2;PMS_P1;PMS_P2;Temp;Humidity;BMP_temperature;BMP_pressure;BME280_temperature;BME280_humidity;BME280_pressure;Samples;Min_cycle;Max_cycle;Signal;HPM_P1;HPM_P2
2023/05/21 00:00:09;;;;;;;;;;;;;;;;;;5057565;28;20233;-64
2023/05/21 00:02:35;;;;;;;;;;;;;;;;;;5051992;28;20335;-65
2023/05/21 00:05:01;;;;;;;;;;;;;;;;;;5051671;28;19916;-64
2023/05/21 00:07:27;;;;;;;;;;;;;;;;;;5068492;28;20675;-65
2023/05/21 00:09:53;;;;;;;;;;;;;;;;;;5052609;28;19913;-65
2023/05/21 00:12:19;;;;;;;;;;;;;;;;;;5072321;28;19913;-65
2023/05/21 00:14:45;;;;;;;;;;;;;;;;;;5051531;28;20361;-65
2023/05/21 00:17:11;;;;;;;;;;;;;;;;;;5066530;28;19909;-65
2023/05/21 00:19:38;;;;;;;;;;;;;;;;;;5052980;28;20450;-64
2023/05/21 00:22:04;;;;;;;;;;;;;;;;;;5051492;28;19982;-64
2023/05/21 00:24:30;;;;;;;;;;;;;;;;;;5051039;28;19987;-65
2023/05/21 00:26:56;;;;;;;;;;;;;;;;;;5052269;28;20378;-65
2023/05/21 00:29:22;;;;;;;;;;;;;;;;;;5065816;28;19927;-65
2023/05/21 00:31:49;;;;;;;;;;;;;;;;;;5055547;28;19908;-65
2023/05/21 00:34:15;;;;;;;;;;;;;;;;;;5069821;28;19920;-64
2023/05/21 00:36:44;;;;;;;;;;;;;;;;;;5060293;28;20384;-62
2023/05/21 00:39:10;;;;;;;;;;;;;;;;;;5070067;28;19959;-65
2023/05/21 00:41:38;;;;;;;;;;;;;;;;;;5080539;28;19916;-65
2023/05/21 00:44:04;;;;;;;;;;;;;;;;;;5055978;28;19935;-64
2023/05/21 00:46:30;;;;;;;;;;;;;;;;;;5056410;28;19924;-64
2023/05/21 00:48:59;;;;;;;;;;;;;;;;;;5058769;28;19956;-65
2023/05/21 00:51:28;;;;;;;;;;;;;;;;;;5056071;28;19916;-65
2023/05/21 00:53:54;;;;;;;;;;;;;;;;;;5056109;28;19905;-65
2023/05/21 00:56:21;;;;;;;;;;;;;;;;;;5044484;28;20385;-64
2023/05/21 00:58:47;;;;;;;;;;;;;;;;;;5056128;28;20376;-64
2023/05/21 01:01:13;;;;;;;;;;;;;;;;;;5055448;28;19963;-65
2023/05/21 01:03:39;;;;;;;;;;;;;;;;;;5054864;28;19912;-65
2023/05/21 01:06:05;;;;;;;;;;;;;;;;;;5074446;28;19959;-65
2023/05/21 01:08:31;;;;;;;;;;;;;;;;;;5067054;28;20657;-65
2023/05/21 01:10:57;;;;;;;;;;;;;;;;;;5054993;28;20401;-65
2023/05/21 01:13:23;;;;;;;;;;;;;;;;;;5060557;28;19958;-64
2023/05/21 01:15:49;;;;;;;;;;;;;;;;;;5059249;28;20011;-65
2023/05/21 01:18:15;;;;;;;;;;;;;;;;;;5060613;28;19923;-65
2023/05/21 01:20:46;;;;;;;;;;;;;;;;;;5055069;28;19917;-65
2023/05/21 01:23:12;;;;;;;;;;;;;;;;;;5057406;28;19943;-64
2023/05/21 01:25:41;;;;;;;;;;;;;;;;;;5055179;28;20385;-65
2023/05/21 01:28:06;;;;;;;;;;;;;;;;;;5054705;28;20353;-65
2023/05/21 01:30:32;;;;;;;;;;;;;;;;;;5040640;28;19967;-65
2023/05/21 01:32:58;;;;;;;;;;;;;;;;;;5068136;28;20049;-65
2023/05/21 01:35:24;;;;;;;;;;;;;;;;;;5054955;28;20479;-65
2023/05/21 01:37:50;;;;;;;;;;;;;;;;;;5057725;28;19991;-64
2023/05/21 01:40:16;;;;;;;;;;;;;;;;;;5069635;28;19909;-65
2023/05/21 01:42:43;;;;;;;;;;;;;;;;;;5068523;28;19963;-64
2023/05/21 01:45:09;;;;;;;;;;;;;;;;;;5054581;28;19920;-65
2023/05/21 01:47:35;;;;;;;;;;;;;;;;;;5056404;28;19913;-65
2023/05/21 01:50:01;;;;;;;;;;;;;;;;;;5042320;28;20590;-65
2023/05/21 01:52:27;;;;;;;;;;;;;;;;;;5057676;28;19958;-65
2023/05/21 01:54:53;;;;;;;;;;;;;;;;;;5065661;28;19912;-65
2023/05/21 01:57:19;;;;;;;;;;;;;;;;;;5068120;28;19966;-65
2023/05/21 01:59:46;;;;;;;;;;;;;;;;;;5057746;28;19963;-65
2023/05/21 02:02:12;;;;;;;;;;;;;;;;;;5068123;28;19916;-65
2023/05/21 02:04:40;;;;;;;;;;;;;;;;;;5074637;28;19913;-65
2023/05/21 02:07:06;;;;;;;;;;;;;;;;;;5054806;28;19917;-65
2023/05/21 02:09:31;;;;;;;;;;;;;;;;;;5054031;28;20402;-64
2023/05/21 02:11:57;;;;;;;;;;;;;;;;;;5056844;28;19916;-65
2023/05/21 02:14:28;;;;;;;;;;;;;;;;;;5069354;28;20344;-65
2023/05/21 02:16:55;;;;;;;;;;;;;;;;;;5074559;28;19913;-65
2023/05/21 02:19:21;;;;;;;;;;;;;;;;;;5071485;28;19947;-65
2023/05/21 02:21:47;;;;;;;;;;;;;;;;;;5053804;28;19959;-65
2023/05/21 02:24:13;;;;;;;;;;;;;;;;;;5055232;28;19913;-65
2023/05/21 02:26:39;;;;;;;;;;;;;;;;;;5054367;28;19960;-65
2023/05/21 02:29:05;;;;;;;;;;;;;;;;;;5055209;28;20288;-65
2023/05/21 02:31:31;;;;;;;;;;;;;;;;;;5054442;28;20339;-65
2023/05/21 02:33:57;;;;;;;;;;;;;;;;;;5054238;28;20013;-64
2023/05/21 02:36:24;;;;;;;;;;;;;;;;;;5054174;28;19912;-65
2023/05/21 02:38:50;;;;;;;;;;;;;;;;;;5063078;28;20222;-65
2023/05/21 02:41:15;;;;;;;;;;;;;;;;;;5061994;28;20399;-65
2023/05/21 02:43:41;;;;;;;;;;;;;;;;;;5062057;28;19920;-65
2023/05/21 02:46:07;;;;;;;;;;;;;;;;;;5072709;28;20422;-65
2023/05/21 02:48:33;;;;;;;;;;;;;;;;;;5054092;28;20401;-65
2023/05/21 02:50:59;;;;;;;;;;;;;;;;;;5067858;28;19999;-65
2023/05/21 02:53:25;;;;;;;;;;;;;;;;;;5052974;28;19919;-65
2023/05/21 02:55:51;;;;;;;;;;;;;;;;;;5053706;28;20265;-65
2023/05/21 02:58:17;;;;;;;;;;;;;;;;;;5054600;28;19938;-64
2023/05/21 03:00:43;;;;;;;;;;;;;;;;;;5067143;28;20017;-65
2023/05/21 03:03:10;;;;;;;;;;;;;;;;;;5071021;28;19974;-65
2023/05/21 03:05:36;;;;;;;;;;;;;;;;;;5064710;28;20327;-65
2023/05/21 03:08:02;;;;;;;;;;;;;;;;;;5053226;28;19951;-65
2023/05/21 03:10:28;;;;;;;;;;;;;;;;;;5060285;28;20295;-65
2023/05/21 03:12:54;;;;;;;;;;;;;;;;;;5054148;28;19960;-65
2023/05/21 03:15:22;;;;;;;;;;;;;;;;;;5063888;28;19960;-65
2023/05/21 03:17:48;;;;;;;;;;;;;;;;;;5052811;28;20015;-65
2023/05/21 03:20:17;;;;;;;;;;;;;;;;;;5066672;28;20000;-65
2023/05/21 03:22:43;;;;;;;;;;;;;;;;;;5068274;28;20527;-65
2023/05/21 03:25:09;;;;;;;;;;;;;;;;;;5055146;28;19952;-65
2023/05/21 03:27:35;;;;;;;;;;;;;;;;;;5067886;28;20403;-65
2023/05/21 03:30:01;;;;;;;;;;;;;;;;;;5054059;28;19913;-65
2023/05/21 03:32:27;;;;;;;;;;;;;;;;;;5052242;28;20027;-65
2023/05/21 03:34:53;;;;;;;;;;;;;;;;;;5055933;28;19919;-65
2023/05/21 03:37:19;;;;;;;;;;;;;;;;;;5064839;28;19916;-65
2023/05/21 03:39:45;;;;;;;;;;;;;;;;;;5038299;28;20015;-65
2023/05/21 03:42:12;;;;;;;;;;;;;;;;;;5060611;28;20368;-65
2023/05/21 03:44:38;;;;;;;;;;;;;;;;;;5073088;28;20392;-65
2023/05/21 03:47:04;;;;;;;;;;;;;;;;;;5059373;28;20003;-65
2023/05/21 03:49:30;;;;;;;;;;;;;;;;;;5053736;28;19916;-65
2023/05/21 03:51:56;;;;;;;;;;;;;;;;;;5060972;28;19959;-65
2023/05/21 03:54:22;;;;;;;;;;;;;;;;;;5058748;28;20368;-65
2023/05/21 03:56:48;;;;;;;;;;;;;;;;;;5073432;28;19997;-65
2023/05/21 03:59:14;;;;;;;;;;;;;;;;;;5072668;28;19912;-65
2023/05/21 04:01:40;;;;;;;;;;;;;;;;;;5071335;28;19952;-65
2023/05/21 04:04:06;;;;;;;;;;;;;;;;;;5060512;28;19940;-65
2023/05/21 04:06:32;;;;;;;;;;;;;;;;;;5064015;28;19948;-65
2023/05/21 04:08:57;;;;;;;;;;;;;;;;;;5063683;28;19909;-65
2023/05/21 04:11:23;;;;;;;;;;;;;;;;;;5071607;28;19944;-65
2023/05/21 04:13:50;;;;;;;;;;;;;;;;;;5081458;28;20384;-65
2023/05/21 04:16:17;;;;;;;;;;;;;;;;;;5072101;28;19913;-65
2023/05/21 04:18:43;;;;;;;;;;;;;;;;;;5065660;28;20406;-65
2023/05/21 04:21:09;;;;;;;;;;;;;;;;;;5058057;28;19967;-65
2023/05/21 04:23:36;;;;;;;;;;;;;;;;;;5063504;28;19919;-65
2023/05/21 04:26:03;;;;;;;;;;;;;;;;;;5070220;28;19908;-65
2023/05/21 04:28:29;;;;;;;;;;;;;;;;;;5072331;28;19918;-65
2023/05/21 04:30:55;;;;;;;;;;;;;;;;;;5074396;28;19913;-65
2023/05/21 04:33:21;;;;;;;;;;;;;;;;;;5070526;28;19908;-65
2023/05/21 04:35:48;;;;;;;;;;;;;;;;;;5071380;28;20356;-65
2023/05/21 04:38:18;;;;;;;;;;;;;;;;;;5069743;28;20701;-65
2023/05/21 04:40:44;;;;;;;;;;;;;;;;;;5053546;28;19962;-65
2023/05/21 04:43:10;;;;;;;;;;;;;;;;;;5057268;28;19971;-65
2023/05/21 04:45:36;;;;;;;;;;;;;;;;;;5057520;28;19908;-65
2023/05/21 04:48:02;;;;;;;;;;;;;;;;;;5061599;28;20273;-65
2023/05/21 04:50:29;;;;;;;;;;;;;;;;;;5053320;28;19927;-65
2023/05/21 04:52:55;;;;;;;;;;;;;;;;;;5062859;28;20012;-65
2023/05/21 04:55:21;;;;;;;;;;;;;;;;;;5067480;28;19956;-65
2023/05/21 04:57:47;;;;;;;;;;;;;;;;;;5051056;28;19912;-65
2023/05/21 05:00:13;;;;;;;;;;;;;;;;;;5054576;28;19963;-65
2023/05/21 05:02:39;;;;;;;;;;;;;;;;;;5066116;28;20372;-65
2023/05/21 05:05:05;;;;;;;;;;;;;;;;;;5068379;28;19956;-64
2023/05/21 05:07:31;;;;;;;;;;;;;;;;;;5070495;28;19941;-65
2023/05/21 05:09:57;;;;;;;;;;;;;;;;;;5071387;28;20336;-65
2023/05/21 05:12:23;;;;;;;;;;;;;;;;;;5061910;28;19953;-65
2023/05/21 05:14:48;;;;;;;;;;;;;;;;;;5067169;28;20054;-65
2023/05/21 05:17:15;;;;;;;;;;;;;;;;;;5061736;28;19921;-65
2023/05/21 05:19:41;;;;;;;;;;;;;;;;;;5068986;28;20261;-65
2023/05/21 05:22:07;;;;;;;;;;;;;;;;;;5068659;28;19939;-65
2023/05/21 05:24:32;;;;;;;;;;;;;;;;;;5064509;28;19940;-65
2023/05/21 05:26:58;;;;;;;;;;;;;;;;;;5073266;28;19941;-65
2023/05/21 05:29:24;;;;;;;;;;;;;;;;;;5064025;28;19913;-65
2023/05/21 05:31:50;;;;;;;;;;;;;;;;;;5055132;28;19951;-65
2023/05/21 05:34:16;;;;;;;;;;;;;;;;;;5054649;28;19913;-65
2023/05/21 05:36:42;;;;;;;;;;;;;;;;;;5066269;28;19940;-65
2023/05/21 05:39:09;;;;;;;;;;;;;;;;;;5059924;28;19913;-65
2023/05/21 05:41:34;;;;;;;;;;;;;;;;;;5063696;28;20312;-65
2023/05/21 05:44:00;;;;;;;;;;;;;;;;;;5060911;28;19917;-65
2023/05/21 05:46:26;;;;;;;;;;;;;;;;;;5069493;28;19917;-65
2023/05/21 05:48:52;;;;;;;;;;;;;;;;;;5059497;28;19919;-65
2023/05/21 05:51:18;;;;;;;;;;;;;;;;;;5056533;28;19956;-64
2023/05/21 05:53:44;;;;;;;;;;;;;;;;;;5056335;28;19994;-65
2023/05/21 05:56:10;;;;;;;;;;;;;;;;;;5067668;28;19985;-65
2023/05/21 05:58:36;;;;;;;;;;;;;;;;;;5067232;28;19966;-65
2023/05/21 06:01:02;;;;;;;;;;;;;;;;;;5060931;28;19952;-65
2023/05/21 06:03:28;;;;;;;;;;;;;;;;;;5074102;28;19919;-65
2023/05/21 06:05:54;;;;;;;;;;;;;;;;;;5069030;28;19912;-65
2023/05/21 06:08:20;;;;;;;;;;;;;;;;;;5067697;28;20223;-65
2023/05/21 06:10:46;;;;;;;;;;;;;;;;;;5064406;28;20357;-66
2023/05/21 06:13:12;;;;;;;;;;;;;;;;;;5073876;28;19995;-65
2023/05/21 06:15:41;;;;;;;;;;;;;;;;;;5072078;28;19924;-65
2023/05/21 06:18:07;;;;;;;;;;;;;;;;;;5073200;28;20368;-65
2023/05/21 06:20:33;;;;;;;;;;;;;;;;;;5070931;28;19965;-65
2023/05/21 06:22:59;;;;;;;;;;;;;;;;;;5074473;28;20288;-65
2023/05/21 06:25:25;;;;;;;;;;;;;;;;;;5061167;28;19916;-65
2023/05/21 06:27:51;;;;;;;;;;;;;;;;;;5057503;28;19913;-65
2023/05/21 06:30:17;;;;;;;;;;;;;;;;;;5069537;28;19963;-65
2023/05/21 06:32:43;;;;;;;;;;;;;;;;;;5071735;28;19955;-63
2023/05/21 06:35:09;;;;;;;;;;;;;;;;;;5072632;28;19914;-65
2023/05/21 06:37:35;;;;;;;;;;;;;;;;;;5072315;28;20395;-65
2023/05/21 06:40:01;;;;;;;;;;;;;;;;;;5068449;28;19916;-65
2023/05/21 06:42:27;;;;;;;;;;;;;;;;;;5055102;28;19924;-65
2023/05/21 06:44:52;;;;;;;;;;;;;;;;;;5059851;28;19966;-65
2023/05/21 06:47:18;;;;;;;;;;;;;;;;;;5067292;28;20022;-65
2023/05/21 06:49:45;;;;;;;;;;;;;;;;;;5065121;28;20294;-65
2023/05/21 06:52:10;;;;;;;;;;;;;;;;;;5066235;28;19917;-66
2023/05/21 06:54:37;;;;;;;;;;;;;;;;;;5071857;28;19999;-65
2023/05/21 06:57:02;;;;;;;;;;;;;;;;;;5060486;28;19912;-65
2023/05/21 06:59:28;;;;;;;;;;;;;;;;;;5057344;28;19948;-66
2023/05/21 07:01:54;;;;;;;;;;;;;;;;;;5056463;28;20009;-65
2023/05/21 07:04:20;;;;;;;;;;;;;;;;;;5066413;28;19917;-65
2023/05/21 07:06:47;;;;;;;;;;;;;;;;;;5073632;28;19909;-65
2023/05/21 07:09:13;;;;;;;;;;;;;;;;;;5064673;28;19912;-65
2023/05/21 07:11:39;;;;;;;;;;;;;;;;;;5065238;28;19972;-64
2023/05/21 07:14:05;;;;;;;;;;;;;;;;;;5070109;28;20376;-64
2023/05/21 07:16:31;;;;;;;;;;;;;;;;;;5062572;28;19920;-61
2023/05/21 07:18:57;;;;;;;;;;;;;;;;;;5064507;28;20003;-62
2023/05/21 07:21:22;;;;;;;;;;;;;;;;;;5056535;28;19971;-63
2023/05/21 07:23:48;;;;;;;;;;;;;;;;;;5068529;28;19959;-62
2023/05/21 07:26:14;;;;;;;;;;;;;;;;;;5069344;28;19912;-61
2023/05/21 07:28:40;;;;;;;;;;;;;;;;;;5068726;28;19931;-64
2023/05/21 07:31:07;;;;;;;;;;;;;;;;;;5070065;28;19950;-64
2023/05/21 07:33:33;;;;;;;;;;;;;;;;;;5068696;28;19919;-64
2023/05/21 07:35:58;;;;;;;;;;;;;;;;;;5062090;28;20376;-64
2023/05/21 07:38:25;;;;;;;;;;;;;;;;;;5056356;28;19987;-64
2023/05/21 07:40:50;;;;;;;;;;;;;;;;;;5053583;28;19939;-64
2023/05/21 07:43:16;;;;;;;;;;;;;;;;;;5064605;28;20380;-64
2023/05/21 07:45:42;;;;;;;;;;;;;;;;;;5052880;28;19956;-64
2023/05/21 07:48:08;;;;;;;;;;;;;;;;;;5058270;28;19947;-64
2023/05/21 07:50:34;;;;;;;;;;;;;;;;;;5053353;28;19913;-65
2023/05/21 07:53:00;;;;;;;;;;;;;;;;;;5058898;28;19919;-64
2023/05/21 07:55:26;;;;;;;;;;;;;;;;;;5066351;28;19955;-64
2023/05/21 07:57:52;;;;;;;;;;;;;;;;;;5060740;28;20442;-65
2023/05/21 08:00:18;;;;;;;;;;;;;;;;;;5066204;28;19963;-64
2023/05/21 08:02:44;;;;;;;;;;;;;;;;;;5064980;28;20615;-64
2023/05/21 08:05:10;;;;;;;;;;;;;;;;;;5072727;28;19999;-64
2023/05/21 08:07:36;;;;;;;;;;;;;;;;;;5057648;28;19990;-64
2023/05/21 08:10:02;;;;;;;;;;;;;;;;;;5064469;28;20622;-64
2023/05/21 08:12:28;;;;;;;;;;;;;;;;;;5068540;28;19963;-64
2023/05/21 08:14:54;;;;;;;;;;;;;;;;;;5069756;28;19924;-64
2023/05/21 08:17:20;;;;;;;;;;;;;;;;;;5064528;28;20352;-64
2023/05/21 08:19:45;;;;;;;;;;;;;;;;;;5066773;28;20011;-64
2023/05/21 08:22:12;;;;;;;;;;;;;;;;;;5060096;28;19924;-64
2023/05/21 08:24:38;;;;;;;;;;;;;;;;;;5060657;28;20334;-64
2023/05/21 08:27:04;;;;;;;;;;;;;;;;;;5068479;28;20391;-64
2023/05/21 08:29:31;;;;;;;;;;;;;;;;;;5063520;28;19943;-64
2023/05/21 08:31:57;;;;;;;;;;;;;;;;;;5066776;28;19916;-64
2023/05/21 08:34:23;;;;;;;;;;;;;;;;;;5061115;28;19935;-64
2023/05/21 08:36:50;;;;;;;;;;;;;;;;;;5062633;28;19923;-64
2023/05/21 08:39:16;;;;;;;;;;;;;;;;;;5059566;28;20387;-64
2023/05/21 08:41:48;;;;;;;;;;;;;;;;;;5064194;28;20303;-64
2023/05/21 08:44:14;;;;;;;;;;;;;;;;;;5057358;28;20331;-64
2023/05/21 08:46:42;;;;;;;;;;;;;;;;;;5080662;28;19916;-63
2023/05/21 08:49:07;;;;;;;;;;;;;;;;;;5065484;28;20003;-63
2023/05/21 08:51:34;;;;;;;;;;;;;;;;;;5065549;28;20356;-64
2023/05/21 08:53:59;;;;;;;;;;;;;;;;;;5062051;28;19913;-64
2023/05/21 08:56:25;;;;;;;;;;;;;;;;;;5059640;28;20458;-64
2023/05/21 08:58:51;;;;;;;;;;;;;;;;;;5063470;28;19912;-64
2023/05/21 09:01:18;;;;;;;;;;;;;;;;;;5064325;28;20002;-63
2023/05/21 09:03:43;;;;;;;;;;;;;;;;;;5069372;28;19913;-64
2023/05/21 09:06:09;;;;;;;;;;;;;;;;;;5068481;28;19952;-64
2023/05/21 09:08:35;;;;;;;;;;;;;;;;;;5074043;28;20395;-63
2023/05/21 09:11:04;;;;;;;;;;;;;;;;;;5058238;28;19965;-64
2023/05/21 09:13:31;;;;;;;;;;;;;;;;;;5064910;28;20369;-63
2023/05/21 09:15:57;;;;;;;;;;;;;;;;;;5067820;28;19989;-63
2023/05/21 09:18:23;;;;;;;;;;;;;;;;;;5066191;28;20371;-63
2023/05/21 09:20:49;;;;;;;;;;;;;;;;;;5068813;28;19916;-64
2023/05/21 09:23:16;;;;;;;;;;;;;;;;;;5068412;28;20377;-63
2023/05/21 09:25:41;;;;;;;;;;;;;;;;;;5068061;28;19916;-63
2023/05/21 09:28:07;;;;;;;;;;;;;;;;;;5073592;28;20399;-63
2023/05/21 09:30:33;;;;;;;;;;;;;;;;;;5072802;28;19970;-63
2023/05/21 09:33:00;;;;;;;;;;;;;;;;;;5073604;28;19917;-62
2023/05/21 09:35:26;;;;;;;;;;;;;;;;;;5064284;28;19956;-63
2023/05/21 09:37:52;;;;;;;;;;;;;;;;;;5060868;28;19958;-63
2023/05/21 09:40:18;;;;;;;;;;;;;;;;;;5064878;28;19916;-63
2023/05/21 09:42:44;;;;;;;;;;;;;;;;;;5071330;28;20323;-63
2023/05/21 09:45:10;;;;;;;;;;;;;;;;;;5057649;28;19964;-63
2023/05/21 09:47:36;;;;;;;;;;;;;;;;;;5064996;28;20269;-63
2023/05/21 09:50:02;;;;;;;;;;;;;;;;;;5067273;28;19955;-62
2023/05/21 09:52:29;;;;;;;;;;;;;;;;;;5061454;28;19912;-62
2023/05/21 09:54:55;;;;;;;;;;;;;;;;;;5062085;28;20384;-64
2023/05/21 09:57:21;;;;;;;;;;;;;;;;;;5059568;28;20011;-64
2023/05/21 09:59:46;;;;;;;;;;;;;;;;;;5073532;28;19982;-63
2023/05/21 10:02:12;;;;;;;;;;;;;;;;;;5071445;28;19920;-63
2023/05/21 10:04:38;;;;;;;;;;;;;;;;;;5064169;28;19913;-63
2023/05/21 10:07:04;;;;;;;;;;;;;;;;;;5062889;28;19967;-64
2023/05/21 10:09:30;;;;;;;;;;;;;;;;;;5061653;28;20631;-64
2023/05/21 10:11:56;;;;;;;;;;;;;;;;;;5067219;28;19966;-63
2023/05/21 10:14:22;;;;;;;;;;;;;;;;;;5066494;28;19959;-64
2023/05/21 10:16:48;;;;;;;;;;;;;;;;;;5057434;28;19923;-65
2023/05/21 10:19:14;;;;;;;;;;;;;;;;;;5059061;28;19913;-64
2023/05/21 10:21:40;;;;;;;;;;;;;;;;;;5071454;28;19924;-64
2023/05/21 10:24:06;;;;;;;;;;;;;;;;;;5063772;28;20329;-63
2023/05/21 10:26:32;;;;;;;;;;;;;;;;;;5068062;28;19955;-64
2023/05/21 10:28:59;;;;;;;;;;;;;;;;;;5073972;28;20303;-64
2023/05/21 10:31:25;;;;;;;;;;;;;;;;;;5070523;28;19948;-64
2023/05/21 10:33:51;;;;;;;;;;;;;;;;;;5069934;28;19938;-64
2023/05/21 10:36:17;;;;;;;;;;;;;;;;;;5068463;28;20404;-63
2023/05/21 10:38:43;;;;;;;;;;;;;;;;;;5072226;28;19940;-64
2023/05/21 10:41:09;;;;;;;;;;;;;;;;;;5068187;28;19956;-63
2023/05/21 10:43:35;;;;;;;;;;;;;;;;;;5074220;28;19970;-64
2023/05/21 10:46:01;;;;;;;;;;;;;;;;;;5073668;28;19999;-64
2023/05/21 10:48:27;;;;;;;;;;;;;;;;;;5070748;28;19944;-64
2023/05/21 10:50:53;;;;;;;;;;;;;;;;;;5061435;28;20051;-63
2023/05/21 10:53:18;;;;;;;;;;;;;;;;;;5068716;28;20383;-64
2023/05/21 10:55:44;;;;;;;;;;;;;;;;;;5058939;28;19965;-64
2023/05/21 10:58:10;;;;;;;;;;;;;;;;;;5072243;28;20269;-63
2023/05/21 11:00:36;;;;;;;;;;;;;;;;;;5073532;28;19909;-63
2023/05/21 11:03:02;;;;;;;;;;;;;;;;;;5069612;28;19970;-63
2023/05/21 11:05:28;;;;;;;;;;;;;;;;;;5066229;28;19920;-64
2023/05/21 11:07:55;;;;;;;;;;;;;;;;;;5073443;28;20290;-62
2023/05/21 11:10:21;;;;;;;;;;;;;;;;;;5063670;28;19973;-64
2023/05/21 11:12:47;;;;;;;;;;;;;;;;;;5069058;28;19999;-63
2023/05/21 11:15:13;;;;;;;;;;;;;;;;;;5069209;28;20414;-63
2023/05/21 11:17:39;;;;;;;;;;;;;;;;;;5069123;28;19916;-63
2023/05/21 11:20:06;;;;;;;;;;;;;;;;;;5073844;28;20340;-63
2023/05/21 11:22:32;;;;;;;;;;;;;;;;;;5072609;28;19923;-64
2023/05/21 11:24:57;;;;;;;;;;;;;;;;;;5058810;28;19912;-63
2023/05/21 11:27:23;;;;;;;;;;;;;;;;;;5070996;28;20372;-64
2023/05/21 11:29:49;;;;;;;;;;;;;;;;;;5072118;28;19999;-63
2023/05/21 11:32:16;;;;;;;;;;;;;;;;;;5067669;28;20315;-64
2023/05/21 11:34:42;;;;;;;;;;;;;;;;;;5069728;28;20002;-64
2023/05/21 11:37:08;;;;;;;;;;;;;;;;;;5063030;28;19912;-64
2023/05/21 11:39:34;;;;;;;;;;;;;;;;;;5068771;28;20446;-64
2023/05/21 11:42:00;;;;;;;;;;;;;;;;;;5071858;28;20435;-63
2023/05/21 11:44:26;;;;;;;;;;;;;;;;;;5060299;28;19924;-64
2023/05/21 11:46:52;;;;;;;;;;;;;;;;;;5053190;28;20289;-63
2023/05/21 11:49:18;;;;;;;;;;;;;;;;;;5052626;28;19941;-63
2023/05/21 11:51:44;;;;;;;;;;;;;;;;;;5060199;28;19952;-63
2023/05/21 11:54:10;;;;;;;;;;;;;;;;;;5053044;28;19909;-63
2023/05/21 11:56:40;;;;;;;;;;;;;;;;;;5066067;28;20318;-64
2023/05/21 11:59:06;;;;;;;;;;;;;;;;;;5071990;28;19919;-64
2023/05/21 12:01:32;;;;;;;;;;;;;;;;;;5072047;28;19908;-63
2023/05/21 12:03:58;;;;;;;;;;;;;;;;;;5062222;28;19919;-63
2023/05/21 12:06:25;;;;;;;;;;;;;;;;;;5072425;28;19913;-64
2023/05/21 12:08:51;;;;;;;;;;;;;;;;;;5071017;28;19978;-63
2023/05/21 12:11:17;;;;;;;;;;;;;;;;;;5062749;28;19916;-63
2023/05/21 12:13:43;;;;;;;;;;;;;;;;;;5063469;28;19925;-63
2023/05/21 12:16:09;;;;;;;;;;;;;;;;;;5065975;28;19922;-63
2023/05/21 12:18:35;;;;;;;;;;;;;;;;;;5067668;28;19940;-63
2023/05/21 12:21:00;;;;;;;;;;;;;;;;;;5069340;28;19921;-63
2023/05/21 12:23:26;;;;;;;;;;;;;;;;;;5064558;28;20015;-63
2023/05/21 12:25:52;;;;;;;;;;;;;;;;;;5060976;28;19916;-63
2023/05/21 12:28:18;;;;;;;;;;;;;;;;;;5071213;28;19999;-63
2023/05/21 12:30:44;;;;;;;;;;;;;;;;;;5051854;28;19916;-63
2023/05/21 12:33:10;;;;;;;;;;;;;;;;;;5059776;28;19920;-64
2023/05/21 12:35:36;;;;;;;;;;;;;;;;;;5070877;28;19912;-64
2023/05/21 12:38:02;;;;;;;;;;;;;;;;;;5072065;28;19970;-64
2023/05/21 12:40:28;;;;;;;;;;;;;;;;;;5053062;28;19913;-63
2023/05/21 12:42:54;;;;;;;;;;;;;;;;;;5069516;28;19959;-64
2023/05/21 12:45:21;;;;;;;;;;;;;;;;;;5065723;28;19913;-63
2023/05/21 12:47:48;;;;;;;;;;;;;;;;;;5069604;28;20277;-64
2023/05/21 12:50:14;;;;;;;;;;;;;;;;;;5052014;28;19919;-63
2023/05/21 12:52:43;;;;;;;;;;;;;;;;;;5051752;28;20372;-63
2023/05/21 12:55:10;;;;;;;;;;;;;;;;;;5070606;28;20446;-63
2023/05/21 12:57:37;;;;;;;;;;;;;;;;;;5072056;28;19919;-63
2023/05/21 13:00:05;;;;;;;;;;;;;;;;;;5071343;28;20900;-63
2023/05/21 13:02:31;;;;;;;;;;;;;;;;;;5053910;28;19921;-63
2023/05/21 13:04:57;;;;;;;;;;;;;;;;;;5066521;28;19960;-63
2023/05/21 13:07:23;;;;;;;;;;;;;;;;;;5060126;28;19916;-64
2023/05/21 13:09:51;;;;;;;;;;;;;;;;;;5061535;28;19917;-64
2023/05/21 13:12:17;;;;;;;;;;;;;;;;;;5066116;28;19920;-64
2023/05/21 13:14:43;;;;;;;;;;;;;;;;;;5066080;28;19929;-63
2023/05/21 13:17:09;;;;;;;;;;;;;;;;;;5052042;28;20013;-63
2023/05/21 13:19:35;;;;;;;;;;;;;;;;;;5054763;28;19955;-63
2023/05/21 13:22:01;;;;;;;;;;;;;;;;;;5051094;28;19977;-63
2023/05/21 13:24:27;;;;;;;;;;;;;;;;;;5062609;28;19999;-61
2023/05/21 13:26:53;;;;;;;;;;;;;;;;;;5063604;28;19959;-63
2023/05/21 13:29:19;;;;;;;;;;;;;;;;;;5051984;28;20309;-63
2023/05/21 13:31:45;;;;;;;;;;;;;;;;;;5051848;28;19919;-63
2023/05/21 13:34:11;;;;;;;;;;;;;;;;;;5061151;28;20007;-63
2023/05/21 13:36:36;;;;;;;;;;;;;;;;;;5051725;28;20361;-64
2023/05/21 13:39:02;;;;;;;;;;;;;;;;;;5057687;28;19921;-60
2023/05/21 13:41:28;;;;;;;;;;;;;;;;;;5064780;28;19912;-60
2023/05/21 13:43:54;;;;;;;;;;;;;;;;;;5068657;28;19955;-60
2023/05/21 13:46:20;;;;;;;;;;;;;;;;;;5059039;28;19959;-60
2023/05/21 13:48:46;;;;;;;;;;;;;;;;;;5061158;28;19998;-60
2023/05/21 13:51:12;;;;;;;;;;;;;;;;;;5060252;28;20607;-60
2023/05/21 13:53:38;;;;;;;;;;;;;;;;;;5065969;28;19923;-60
2023/05/21 13:56:04;;;;;;;;;;;;;;;;;;5063846;28;19968;-60
2023/05/21 13:58:33;;;;;;;;;;;;;;;;;;5059803;28;19912;-60
2023/05/21 14:00:59;;;;;;;;;;;;;;;;;;5054580;28;19920;-60
2023/05/21 14:03:26;;;;;;;;;;;;;;;;;;5073657;28;19998;-60
2023/05/21 14:05:52;;;;;;;;;;;;;;;;;;5073856;28;20360;-59
2023/05/21 14:08:19;;;;;;;;;;;;;;;;;;5070081;28;19919;-59
2023/05/21 14:10:46;;;;;;;;;;;;;;;;;;5066762;28;19920;-60
2023/05/21 14:13:11;;;;;;;;;;;;;;;;;;5071031;28;20324;-59
2023/05/21 14:15:37;;;;;;;;;;;;;;;;;;5071059;28;19959;-60
2023/05/21 14:18:06;;;;;;;;;;;;;;;;;;5059647;28;19943;-60
2023/05/21 14:20:32;;;;;;;;;;;;;;;;;;5064672;28;19913;-60
2023/05/21 14:22:58;;;;;;;;;;;;;;;;;;5071994;28;19969;-59
2023/05/21 14:25:24;;;;;;;;;;;;;;;;;;5065041;28;19917;-60
2023/05/21 14:27:50;;;;;;;;;;;;;;;;;;5067299;28;20542;-60
2023/05/21 14:30:16;;;;;;;;;;;;;;;;;;5061898;28;19913;-60
2023/05/21 14:32:41;;;;;;;;;;;;;;;;;;5064238;28;19959;-60
2023/05/21 14:35:07;;;;;;;;;;;;;;;;;;5065673;28;19956;-59
2023/05/21 14:37:33;;;;;;;;;;;;;;;;;;5066168;28;20357;-61
2023/05/21 14:39:59;;;;;;;;;;;;;;;;;;5071978;28;19923;-60
2023/05/21 14:42:25;;;;;;;;;;;;;;;;;;5073881;28;19948;-60
2023/05/21 14:44:51;;;;;;;;;;;;;;;;;;5066423;28;20003;-60
2023/05/21 14:47:17;;;;;;;;;;;;;;;;;;5067954;28;20383;-62
2023/05/21 14:49:43;;;;;;;;;;;;;;;;;;5059548;28;19971;-60
2023/05/21 14:52:09;;;;;;;;;;;;;;;;;;5056167;28;19947;-60
2023/05/21 14:54:35;;;;;;;;;;;;;;;;;;5058889;28;19925;-60
2023/05/21 14:57:01;;;;;;;;;;;;;;;;;;5064435;28;19921;-60
2023/05/21 14:59:27;;;;;;;;;;;;;;;;;;5065724;28;19964;-60
2023/05/21 15:01:53;;;;;;;;;;;;;;;;;;5059698;28;19916;-60
2023/05/21 15:04:19;;;;;;;;;;;;;;;;;;5069985;28;19973;-60
2023/05/21 15:06:45;;;;;;;;;;;;;;;;;;5066812;28;19916;-60
2023/05/21 15:09:11;;;;;;;;;;;;;;;;;;5069196;28;19928;-61
2023/05/21 15:11:38;;;;;;;;;;;;;;;;;;5063634;28;19960;-60
2023/05/21 15:14:04;;;;;;;;;;;;;;;;;;5057230;28;19921;-60
2023/05/21 15:16:30;;;;;;;;;;;;;;;;;;5066123;28;20277;-60
2023/05/21 15:18:56;;;;;;;;;;;;;;;;;;5054264;28;19952;-60
2023/05/21 15:21:22;;;;;;;;;;;;;;;;;;5059161;28;19959;-60
2023/05/21 15:23:48;;;;;;;;;;;;;;;;;;5069746;28;19920;-61
2023/05/21 15:26:14;;;;;;;;;;;;;;;;;;5068831;28;19950;-60
2023/05/21 15:28:40;;;;;;;;;;;;;;;;;;5060307;28;19947;-60
2023/05/21 15:31:06;;;;;;;;;;;;;;;;;;5060415;28;19955;-61
2023/05/21 15:33:31;;;;;;;;;;;;;;;;;;5066017;28;19986;-59
2023/05/21 15:35:57;;;;;;;;;;;;;;;;;;5054023;28;19973;-60
2023/05/21 15:38:23;;;;;;;;;;;;;;;;;;5071840;28;20369;-60
2023/05/21 15:40:49;;;;;;;;;;;;;;;;;;5072536;28;20004;-59
2023/05/21 15:43:15;;;;;;;;;;;;;;;;;;5058456;28;20280;-60
2023/05/21 15:45:41;;;;;;;;;;;;;;;;;;5058397;28;19968;-60
2023/05/21 15:48:07;;;;;;;;;;;;;;;;;;5061285;28;20407;-60
2023/05/21 15:50:36;;;;;;;;;;;;;;;;;;5067274;28;19956;-60
2023/05/21 15:53:02;;;;;;;;;;;;;;;;;;5056622;28;19912;-60
2023/05/21 15:55:28;;;;;;;;;;;;;;;;;;5063938;28;19916;-60
2023/05/21 15:57:54;;;;;;;;;;;;;;;;;;5066954;28;20004;-59
2023/05/21 16:00:20;;;;;;;;;;;;;;;;;;5072392;28;20050;-60
2023/05/21 16:02:46;;;;;;;;;;;;;;;;;;5070790;28;20321;-60
2023/05/21 16:05:12;;;;;;;;;;;;;;;;;;5066237;28;19909;-60
2023/05/21 16:07:38;;;;;;;;;;;;;;;;;;5077885;28;20000;-59
2023/05/21 16:10:04;;;;;;;;;;;;;;;;;;5066323;28;20272;-60
2023/05/21 16:12:30;;;;;;;;;;;;;;;;;;5065931;28;19919;-60
2023/05/21 16:14:56;;;;;;;;;;;;;;;;;;5064656;28;19959;-60
2023/05/21 16:17:22;;;;;;;;;;;;;;;;;;5070952;28;19995;-59
2023/05/21 16:19:48;;;;;;;;;;;;;;;;;;5072790;28;19916;-60
2023/05/21 16:22:14;;;;;;;;;;;;;;;;;;5067214;28;19956;-60
2023/05/21 16:24:40;;;;;;;;;;;;;;;;;;5069937;28;19919;-60
2023/05/21 16:27:06;;;;;;;;;;;;;;;;;;5065361;28;19955;-60
2023/05/21 16:29:32;;;;;;;;;;;;;;;;;;5069171;28;19948;-59
2023/05/21 16:31:58;;;;;;;;;;;;;;;;;;5071646;28;19920;-61
2023/05/21 16:34:24;;;;;;;;;;;;;;;;;;5070326;28;19912;-60
2023/05/21 16:36:50;;;;;;;;;;;;;;;;;;5072289;28;19913;-61